sensor_id;sensor_type;location;lat;lon;timestamp;P1;durP1;ratioP1;P2;durP2;ratioP2
11173;SDS011;5643;50.856;12.088;2023-05-10T00:02:25;1.70;;;1.60;;
11173;SDS011;5643;50.856;12.088;2023-05-10T00:04:53;1.67;;;1.57;;
11173;SDS011;5643;50.856;12.088;2023-05-10T00:07:21;1.60;;;1.50;;
11173;SDS011;5643;50.856;12.088;2023-05-10T00:09:48;1.93;;;1.83;;
11173;SDS011;5643;50.856;12.088;2023-05-10T00:12:16;1.77;;;1.67;;
11173;SDS011;5643;50.856;12.088;2023-05-10T00:14:45;2.10;;;2.00;;
11173;SDS011;5643;50.856;12.088;2023-05-10T00:17:14;1.80;;;1.70;;
11173;SDS011;5643;50.856;12.088;2023-05-10T00:19:41;1.50;;;1.40;;
11173;SDS011;5643;50.856;12.088;2023-05-10T00:22:08;2.50;;;2.40;;
11173;SDS011;5643;50.856;12.088;2023-05-10T00:24:37;1.90;;;1.80;;
11173;SDS011;5643;50.856;12.088;2023-05-10T00:27:04;1.87;;;1.77;;
11173;SDS011;5643;50.856;12.088;2023-05-10T00:29:32;1.90;;;1.80;;
11173;SDS011;5643;50.856;12.088;2023-05-10T00:31:59;1.73;;;1.63;;
11173;SDS011;5643;50.856;12.088;2023-05-10T00:34:29;1.60;;;1.50;;
11173;SDS011;5643;50.856;12.088;2023-05-10T00:36:57;1.80;;;1.70;;
11173;SDS011;5643;50.856;12.088;2023-05-10T00:39:26;1.70;;;1.60;;
11173;SDS011;5643;50.856;12.088;2023-05-10T00:41:54;1.50;;;1.40;;
11173;SDS011;5643;50.856;12.088;2023-05-10T00:44:21;1.80;;;1.70;;
11173;SDS011;5643;50.856;12.088;2023-05-10T00:46:50;1.63;;;1.53;;
11173;SDS011;5643;50.856;12.088;2023-05-10T00:49:18;1.60;;;1.50;;
11173;SDS011;5643;50.856;12.088;2023-05-10T00:51:47;1.87;;;1.77;;
11173;SDS011;5643;50.856;12.088;2023-05-10T00:54:14;1.50;;;1.40;;
11173;SDS011;5643;50.856;12.088;2023-05-10T00:56:42;1.50;;;1.40;;
11173;SDS011;5643;50.856;12.088;2023-05-10T00:59:14;1.60;;;1.50;;
11173;SDS011;5643;50.856;12.088;2023-05-10T01:01:42;1.60;;;1.50;;
11173;SDS011;5643;50.856;12.088;2023-05-10T01:04:09;2.13;;;1.50;;
11173;SDS011;5643;50.856;12.088;2023-05-10T01:06:38;1.50;;;1.40;;
11173;SDS011;5643;50.856;12.088;2023-05-10T01:09:07;1.80;;;1.70;;
11173;SDS011;5643;50.856;12.088;2023-05-10T01:11:35;1.67;;;1.50;;
11173;SDS011;5643;50.856;12.088;2023-05-10T01:14:03;1.73;;;1.63;;
11173;SDS011;5643;50.856;12.088;2023-05-10T01:16:31;1.53;;;1.47;;
11173;SDS011;5643;50.856;12.088;2023-05-10T01:18:59;1.50;;;1.40;;
11173;SDS011;5643;50.856;12.088;2023-05-10T01:21:31;1.60;;;1.50;;
11173;SDS011;5643;50.856;12.088;2023-05-10T01:32:41;1.60;;;1.50;;
11173;SDS011;5643;50.856;12.088;2023-05-10T01:35:12;1.60;;;1.50;;
11173;SDS011;5643;50.856;12.088;2023-05-10T01:37:42;1.60;;;1.50;;
11173;SDS011;5643;50.856;12.088;2023-05-10T01:40:14;1.50;;;1.40;;
11173;SDS011;5643;50.856;12.088;2023-05-10T01:42:47;1.37;;;1.37;;
11173;SDS011;5643;50.856;12.088;2023-05-10T01:45:17;1.57;;;1.53;;
11173;SDS011;5643;50.856;12.088;2023-05-10T01:47:49;1.93;;;1.83;;
11173;SDS011;5643;50.856;12.088;2023-05-10T01:50:18;1.50;;;1.40;;
11173;SDS011;5643;50.856;12.088;2023-05-10T01:52:49;1.60;;;1.50;;
11173;SDS011;5643;50.856;12.088;2023-05-10T01:55:20;1.93;;;1.30;;
11173;SDS011;5643;50.856;12.088;2023-05-10T01:57:50;1.50;;;1.40;;
11173;SDS011;5643;50.856;12.088;2023-05-10T02:00:18;1.70;;;1.60;;
11173;SDS011;5643;50.856;12.088;2023-05-10T02:02:48;1.30;;;1.30;;
11173;SDS011;5643;50.856;12.088;2023-05-10T02:05:17;1.43;;;1.33;;
11173;SDS011;5643;50.856;12.088;2023-05-10T02:07:46;1.20;;;1.20;;
11173;SDS011;5643;50.856;12.088;2023-05-10T02:10:14;1.27;;;1.17;;
11173;SDS011;5643;50.856;12.088;2023-05-10T02:12:42;1.13;;;1.13;;
11173;SDS011;5643;50.856;12.088;2023-05-10T02:15:10;1.30;;;1.20;;
11173;SDS011;5643;50.856;12.088;2023-05-10T02:17:39;1.00;;;1.00;;
11173;SDS011;5643;50.856;12.088;2023-05-10T02:20:08;1.37;;;1.30;;
11173;SDS011;5643;50.856;12.088;2023-05-10T02:22:37;1.47;;;1.37;;
11173;SDS011;5643;50.856;12.088;2023-05-10T02:25:06;1.30;;;1.30;;
11173;SDS011;5643;50.856;12.088;2023-05-10T02:27:33;1.43;;;1.33;;
11173;SDS011;5643;50.856;12.088;2023-05-10T02:30:01;1.60;;;1.50;;
11173;SDS011;5643;50.856;12.088;2023-05-10T02:32:30;1.20;;;1.20;;
11173;SDS011;5643;50.856;12.088;2023-05-10T02:34:59;1.60;;;1.50;;
11173;SDS011;5643;50.856;12.088;2023-05-10T02:37:30;1.60;;;1.50;;
11173;SDS011;5643;50.856;12.088;2023-05-10T02:39:58;1.40;;;1.30;;
11173;SDS011;5643;50.856;12.088;2023-05-10T02:42:27;1.43;;;1.33;;
11173;SDS011;5643;50.856;12.088;2023-05-10T02:44:56;1.10;;;1.10;;
11173;SDS011;5643;50.856;12.088;2023-05-10T02:47:26;1.23;;;1.23;;
11173;SDS011;5643;50.856;12.088;2023-05-10T02:49:53;1.30;;;1.30;;
11173;SDS011;5643;50.856;12.088;2023-05-10T02:52:22;2.50;;;1.40;;
11173;SDS011;5643;50.856;12.088;2023-05-10T02:54:54;1.33;;;1.30;;
11173;SDS011;5643;50.856;12.088;2023-05-10T02:57:22;1.30;;;1.20;;
11173;SDS011;5643;50.856;12.088;2023-05-10T02:59:51;1.50;;;1.40;;
11173;SDS011;5643;50.856;12.088;2023-05-10T03:02:19;1.37;;;1.30;;
11173;SDS011;5643;50.856;12.088;2023-05-10T03:04:47;1.20;;;1.20;;
11173;SDS011;5643;50.856;12.088;2023-05-10T03:07:14;1.30;;;1.30;;
11173;SDS011;5643;50.856;12.088;2023-05-10T03:09:42;1.10;;;1.10;;
11173;SDS011;5643;50.856;12.088;2023-05-10T03:12:13;1.10;;;1.10;;
11173;SDS011;5643;50.856;12.088;2023-05-10T03:14:44;1.30;;;1.30;;
11173;SDS011;5643;50.856;12.088;2023-05-10T03:17:15;1.30;;;1.20;;
11173;SDS011;5643;50.856;12.088;2023-05-10T03:19:46;1.40;;;1.30;;
11173;SDS011;5643;50.856;12.088;2023-05-10T03:22:17;1.30;;;1.20;;
11173;SDS011;5643;50.856;12.088;2023-05-10T03:24:48;1.03;;;1.03;;
11173;SDS011;5643;50.856;12.088;2023-05-10T03:27:17;1.20;;;1.20;;
11173;SDS011;5643;50.856;12.088;2023-05-10T03:29:46;1.33;;;1.33;;
11173;SDS011;5643;50.856;12.088;2023-05-10T03:32:13;1.00;;;1.00;;
11173;SDS011;5643;50.856;12.088;2023-05-10T03:34:41;1.00;;;0.90;;
11173;SDS011;5643;50.856;12.088;2023-05-10T09:38:19;2.13;;;2.03;;
11173;SDS011;5643;50.856;12.088;2023-05-10T09:40:53;2.20;;;2.10;;
11173;SDS011;5643;50.856;12.088;2023-05-10T09:43:23;2.20;;;2.10;;
11173;SDS011;5643;50.856;12.088;2023-05-10T09:45:51;2.23;;;2.07;;
11173;SDS011;5643;50.856;12.088;2023-05-10T09:48:21;2.10;;;2.00;;
11173;SDS011;5643;50.856;12.088;2023-05-10T09:50:56;2.40;;;2.20;;
11173;SDS011;5643;50.856;12.088;2023-05-10T09:53:26;2.30;;;2.10;;
11173;SDS011;5643;50.856;12.088;2023-05-10T09:55:54;2.30;;;2.20;;
11173;SDS011;5643;50.856;12.088;2023-05-10T09:58:22;2.70;;;2.10;;
11173;SDS011;5643;50.856;12.088;2023-05-10T10:00:50;3.20;;;2.40;;
11173;SDS011;5643;50.856;12.088;2023-05-10T10:03:22;2.40;;;2.30;;
11173;SDS011;5643;50.856;12.088;2023-05-10T10:05:50;2.60;;;2.40;;
11173;SDS011;5643;50.856;12.088;2023-05-10T10:08:19;2.53;;;2.33;;
11173;SDS011;5643;50.856;12.088;2023-05-10T10:10:49;2.50;;;2.30;;
11173;SDS011;5643;50.856;12.088;2023-05-10T10:13:16;2.27;;;2.17;;
11173;SDS011;5643;50.856;12.088;2023-05-10T10:15:44;2.30;;;2.20;;
11173;SDS011;5643;50.856;12.088;2023-05-10T10:18:13;2.37;;;2.27;;
11173;SDS011;5643;50.856;12.088;2023-05-10T10:20:41;2.30;;;2.20;;
11173;SDS011;5643;50.856;12.088;2023-05-10T10:23:10;2.53;;;2.37;;
11173;SDS011;5643;50.856;12.088;2023-05-10T10:25:38;2.47;;;2.27;;
11173;SDS011;5643;50.856;12.088;2023-05-10T10:28:10;2.60;;;2.40;;
11173;SDS011;5643;50.856;12.088;2023-05-10T10:30:45;2.00;;;1.90;;
11173;SDS011;5643;50.856;12.088;2023-05-10T10:33:23;2.30;;;2.20;;
11173;SDS011;5643;50.856;12.088;2023-05-10T10:35:55;2.20;;;2.00;;
11173;SDS011;5643;50.856;12.088;2023-05-10T12:38:02;1.87;;;1.70;;
11173;SDS011;5643;50.856;12.088;2023-05-10T12:40:51;1.60;;;1.50;;
11173;SDS011;5643;50.856;12.088;2023-05-10T12:43:20;2.20;;;1.90;;
11173;SDS011;5643;50.856;12.088;2023-05-10T12:45:47;1.60;;;1.50;;
11173;SDS011;5643;50.856;12.088;2023-05-10T12:48:16;1.83;;;1.73;;
11173;SDS011;5643;50.856;12.088;2023-05-10T12:50:45;1.23;;;1.23;;
11173;SDS011;5643;50.856;12.088;2023-05-10T12:53:14;1.47;;;1.37;;
11173;SDS011;5643;50.856;12.088;2023-05-10T12:55:42;1.37;;;1.37;;
11173;SDS011;5643;50.856;12.088;2023-05-10T12:58:10;1.30;;;1.30;;
11173;SDS011;5643;50.856;12.088;2023-05-10T13:00:40;1.30;;;1.30;;
11173;SDS011;5643;50.856;12.088;2023-05-10T13:03:10;1.33;;;1.33;;
11173;SDS011;5643;50.856;12.088;2023-05-10T13:05:38;1.77;;;1.67;;
11173;SDS011;5643;50.856;12.088;2023-05-10T13:08:05;1.37;;;1.27;;
11173;SDS011;5643;50.856;12.088;2023-05-10T13:10:37;1.30;;;1.20;;
11173;SDS011;5643;50.856;12.088;2023-05-10T13:13:04;1.70;;;1.60;;
11173;SDS011;5643;50.856;12.088;2023-05-10T13:15:33;1.67;;;1.57;;
11173;SDS011;5643;50.856;12.088;2023-05-10T13:18:01;1.43;;;1.33;;
11173;SDS011;5643;50.856;12.088;2023-05-10T13:20:28;1.50;;;1.40;;
11173;SDS011;5643;50.856;12.088;2023-05-10T13:22:56;1.70;;;1.60;;
11173;SDS011;5643;50.856;12.088;2023-05-10T13:25:23;1.60;;;1.50;;
11173;SDS011;5643;50.856;12.088;2023-05-10T13:27:52;1.40;;;1.30;;
11173;SDS011;5643;50.856;12.088;2023-05-10T13:30:20;1.60;;;1.50;;
11173;SDS011;5643;50.856;12.088;2023-05-10T13:32:47;1.73;;;1.60;;
11173;SDS011;5643;50.856;12.088;2023-05-10T13:35:14;2.07;;;1.93;;
11173;SDS011;5643;50.856;12.088;2023-05-10T13:37:42;1.63;;;1.53;;
11173;SDS011;5643;50.856;12.088;2023-05-10T13:40:10;2.30;;;1.80;;
11173;SDS011;5643;50.856;12.088;2023-05-10T13:42:38;1.87;;;1.70;;
11173;SDS011;5643;50.856;12.088;2023-05-10T13:45:10;1.80;;;1.70;;
11173;SDS011;5643;50.856;12.088;2023-05-10T13:47:38;1.20;;;1.20;;
11173;SDS011;5643;50.856;12.088;2023-05-10T13:50:06;1.60;;;1.50;;
11173;SDS011;5643;50.856;12.088;2023-05-10T13:52:34;1.60;;;1.50;;
11173;SDS011;5643;50.856;12.088;2023-05-10T13:55:01;1.90;;;1.80;;
11173;SDS011;5643;50.856;12.088;2023-05-10T13:57:29;1.93;;;1.77;;
11173;SDS011;5643;50.856;12.088;2023-05-10T13:59:57;2.60;;;2.40;;
11173;SDS011;5643;50.856;12.088;2023-05-10T14:02:39;3.60;;;3.30;;
11173;SDS011;5643;50.856;12.088;2023-05-10T14:05:08;2.33;;;2.20;;
11173;SDS011;5643;50.856;12.088;2023-05-10T14:07:36;2.80;;;2.60;;
11173;SDS011;5643;50.856;12.088;2023-05-10T14:10:04;3.70;;;3.40;;
11173;SDS011;5643;50.856;12.088;2023-05-10T14:12:39;3.10;;;2.90;;
11173;SDS011;5643;50.856;12.088;2023-05-10T14:15:10;3.70;;;3.40;;
11173;SDS011;5643;50.856;12.088;2023-05-10T14:17:42;3.60;;;3.40;;
11173;SDS011;5643;50.856;12.088;2023-05-10T14:20:10;2.87;;;2.67;;
11173;SDS011;5643;50.856;12.088;2023-05-10T14:22:38;2.80;;;2.60;;
11173;SDS011;5643;50.856;12.088;2023-05-10T14:25:06;3.80;;;3.50;;
11173;SDS011;5643;50.856;12.088;2023-05-10T14:30:36;3.33;;;3.13;;
11173;SDS011;5643;50.856;12.088;2023-05-10T14:33:05;2.87;;;2.67;;
11173;SDS011;5643;50.856;12.088;2023-05-10T14:35:36;3.63;;;3.17;;
11173;SDS011;5643;50.856;12.088;2023-05-10T14:38:05;3.00;;;2.80;;
11173;SDS011;5643;50.856;12.088;2023-05-10T14:40:33;2.90;;;2.70;;
11173;SDS011;5643;50.856;12.088;2023-05-10T14:43:00;2.33;;;2.23;;
11173;SDS011;5643;50.856;12.088;2023-05-10T14:49:02;2.17;;;2.07;;
11173;SDS011;5643;50.856;12.088;2023-05-10T14:51:32;2.20;;;2.10;;
11173;SDS011;5643;50.856;12.088;2023-05-10T14:54:15;2.70;;;2.50;;
11173;SDS011;5643;50.856;12.088;2023-05-10T14:56:43;2.17;;;2.07;;
11173;SDS011;5643;50.856;12.088;2023-05-10T15:02:08;2.07;;;1.97;;
11173;SDS011;5643;50.856;12.088;2023-05-10T15:04:45;1.87;;;1.77;;
11173;SDS011;5643;50.856;12.088;2023-05-10T15:07:13;1.67;;;1.57;;
11173;SDS011;5643;50.856;12.088;2023-05-10T15:09:44;1.70;;;1.60;;
11173;SDS011;5643;50.856;12.088;2023-05-10T15:15:40;2.90;;;2.70;;
11173;SDS011;5643;50.856;12.088;2023-05-10T15:18:15;1.80;;;1.70;;
11173;SDS011;5643;50.856;12.088;2023-05-10T15:20:47;1.90;;;1.80;;
11173;SDS011;5643;50.856;12.088;2023-05-10T15:23:15;1.83;;;1.73;;
11173;SDS011;5643;50.856;12.088;2023-05-10T15:25:49;1.53;;;1.50;;
11173;SDS011;5643;50.856;12.088;2023-05-10T15:28:22;1.73;;;1.63;;
11173;SDS011;5643;50.856;12.088;2023-05-10T15:34:21;1.80;;;1.70;;
